sensor_id;sensor_type;location;lat;lon;timestamp;pressure;altitude;pressure_sealevel;temperature;humidity
21182;BME280;10749;46.296;7.524;2023-03-22T00:01:19;94898.34;;;12.81;40.57
21182;BME280;10749;46.296;7.524;2023-03-22T00:03:45;94904.66;;;12.80;40.69
21182;BME280;10749;46.296;7.524;2023-03-22T00:06:11;94896.31;;;12.83;40.26
21182;BME280;10749;46.296;7.524;2023-03-22T00:08:37;94899.34;;;12.80;40.71
21182;BME280;10749;46.296;7.524;2023-03-22T00:11:03;94911.75;;;12.73;40.38
21182;BME280;10749;46.296;7.524;2023-03-22T00:13:29;94909.22;;;12.65;40.75
21182;BME280;10749;46.296;7.524;2023-03-22T00:15:55;94912.50;;;12.67;40.50
21182;BME280;10749;46.296;7.524;2023-03-22T00:18:22;94910.50;;;12.69;40.46
21182;BME280;10749;46.296;7.524;2023-03-22T00:20:52;94908.91;;;12.75;40.47
21182;BME280;10749;46.296;7.524;2023-03-22T00:23:18;94914.66;;;12.78;40.42
21182;BME280;10749;46.296;7.524;2023-03-22T00:25:44;94904.78;;;12.72;40.35
21182;BME280;10749;46.296;7.524;2023-03-22T00:28:10;94914.53;;;12.65;40.68
21182;BME280;10749;46.296;7.524;2023-03-22T00:30:36;94907.31;;;12.59;40.92
21182;BME280;10749;46.296;7.524;2023-03-22T00:33:02;94910.88;;;12.66;40.82
21182;BME280;10749;46.296;7.524;2023-03-22T00:35:27;94909.84;;;12.67;40.82
21182;BME280;10749;46.296;7.524;2023-03-22T00:37:52;94912.88;;;12.64;40.55
21182;BME280;10749;46.296;7.524;2023-03-22T00:40:18;94911.00;;;12.58;40.69
21182;BME280;10749;46.296;7.524;2023-03-22T00:42:43;94907.97;;;12.61;40.89
21182;BME280;10749;46.296;7.524;2023-03-22T00:45:10;94909.97;;;12.59;40.79
21182;BME280;10749;46.296;7.524;2023-03-22T00:47:36;94902.13;;;12.51;41.09
21182;BME280;10749;46.296;7.524;2023-03-22T00:50:03;94898.88;;;12.49;40.89
21182;BME280;10749;46.296;7.524;2023-03-22T00:52:28;94891.66;;;12.43;40.97
21182;BME280;10749;46.296;7.524;2023-03-22T00:54:54;94900.13;;;12.32;40.84
21182;BME280;10749;46.296;7.524;2023-03-22T00:57:20;94884.19;;;12.32;40.88
21182;BME280;10749;46.296;7.524;2023-03-22T00:59:45;94894.44;;;12.35;40.79
21182;BME280;10749;46.296;7.524;2023-03-22T01:02:11;94884.03;;;12.33;41.14
21182;BME280;10749;46.296;7.524;2023-03-22T01:04:40;94888.13;;;12.36;41.10
21182;BME280;10749;46.296;7.524;2023-03-22T01:07:15;94870.94;;;12.32;41.15
21182;BME280;10749;46.296;7.524;2023-03-22T01:09:46;94873.16;;;12.28;41.13
21182;BME280;10749;46.296;7.524;2023-03-22T01:12:12;94865.31;;;12.20;41.15
21182;BME280;10749;46.296;7.524;2023-03-22T01:14:38;94859.78;;;12.22;41.20
21182;BME280;10749;46.296;7.524;2023-03-22T01:17:04;94856.97;;;12.23;41.17
21182;BME280;10749;46.296;7.524;2023-03-22T01:19:29;94856.91;;;12.17;41.08
21182;BME280;10749;46.296;7.524;2023-03-22T01:21:55;94850.97;;;12.15;41.27
21182;BME280;10749;46.296;7.524;2023-03-22T01:24:20;94853.00;;;12.13;41.16
21182;BME280;10749;46.296;7.524;2023-03-22T01:26:46;94838.47;;;12.09;41.47
21182;BME280;10749;46.296;7.524;2023-03-22T01:29:11;94842.94;;;12.08;41.53
21182;BME280;10749;46.296;7.524;2023-03-22T01:31:37;94837.56;;;12.01;41.55
21182;BME280;10749;46.296;7.524;2023-03-22T01:34:02;94835.53;;;12.03;41.42
21182;BME280;10749;46.296;7.524;2023-03-22T01:36:28;94834.72;;;12.03;41.61
21182;BME280;10749;46.296;7.524;2023-03-22T01:38:53;94821.41;;;11.96;41.83
21182;BME280;10749;46.296;7.524;2023-03-22T01:41:18;94826.84;;;11.88;41.54
21182;BME280;10749;46.296;7.524;2023-03-22T01:43:44;94829.47;;;11.88;41.73
21182;BME280;10749;46.296;7.524;2023-03-22T01:46:09;94832.13;;;11.88;41.98
21182;BME280;10749;46.296;7.524;2023-03-22T01:48:39;94831.03;;;11.83;42.17
21182;BME280;10749;46.296;7.524;2023-03-22T01:51:20;94832.50;;;11.85;42.15
21182;BME280;10749;46.296;7.524;2023-03-22T01:53:49;94824.97;;;11.89;42.02
21182;BME280;10749;46.296;7.524;2023-03-22T01:56:18;94821.88;;;11.85;41.99
21182;BME280;10749;46.296;7.524;2023-03-22T01:58:47;94832.88;;;11.68;42.09
21182;BME280;10749;46.296;7.524;2023-03-22T02:01:13;94828.88;;;11.72;42.08
21182;BME280;10749;46.296;7.524;2023-03-22T02:06:20;94822.81;;;11.78;42.13
21182;BME280;10749;46.296;7.524;2023-03-22T02:08:46;94821.00;;;11.78;41.95
21182;BME280;10749;46.296;7.524;2023-03-22T02:11:15;94815.69;;;11.78;41.80
21182;BME280;10749;46.296;7.524;2023-03-22T02:16:28;94811.94;;;11.73;42.16
21182;BME280;10749;46.296;7.524;2023-03-22T02:27:11;94816.09;;;11.46;42.29
21182;BME280;10749;46.296;7.524;2023-03-22T02:43:47;94797.94;;;11.64;42.27
21182;BME280;10749;46.296;7.524;2023-03-22T02:49:18;94795.47;;;11.41;42.18
21182;BME280;10749;46.296;7.524;2023-03-22T02:52:00;94797.00;;;11.36;42.49
21182;BME280;10749;46.296;7.524;2023-03-22T02:54:33;94789.06;;;11.36;42.58
21182;BME280;10749;46.296;7.524;2023-03-22T02:57:08;94790.72;;;11.37;42.43
21182;BME280;10749;46.296;7.524;2023-03-22T02:59:37;94785.03;;;11.40;42.68
21182;BME280;10749;46.296;7.524;2023-03-22T03:02:04;94800.81;;;11.48;42.62
21182;BME280;10749;46.296;7.524;2023-03-22T03:04:33;94799.94;;;11.41;42.56
21182;BME280;10749;46.296;7.524;2023-03-22T03:07:04;94791.97;;;11.41;42.45
21182;BME280;10749;46.296;7.524;2023-03-22T03:09:32;94793.63;;;11.42;42.53
21182;BME280;10749;46.296;7.524;2023-03-22T03:11:57;94795.94;;;11.30;42.86
21182;BME280;10749;46.296;7.524;2023-03-22T03:14:30;94806.34;;;11.32;42.90
21182;BME280;10749;46.296;7.524;2023-03-22T03:19:36;94800.41;;;11.30;42.76
21182;BME280;10749;46.296;7.524;2023-03-22T03:22:19;94798.78;;;11.29;42.71
21182;BME280;10749;46.296;7.524;2023-03-22T03:24:56;94796.13;;;11.29;42.73
21182;BME280;10749;46.296;7.524;2023-03-22T03:27:29;94800.16;;;11.25;43.16
21182;BME280;10749;46.296;7.524;2023-03-22T03:33:03;94811.56;;;11.10;43.23
21182;BME280;10749;46.296;7.524;2023-03-22T03:35:34;94808.66;;;11.05;43.31
21182;BME280;10749;46.296;7.524;2023-03-22T03:40:37;94816.78;;;11.04;43.06
21182;BME280;10749;46.296;7.524;2023-03-22T03:43:04;94815.34;;;11.01;43.15
21182;BME280;10749;46.296;7.524;2023-03-22T03:45:32;94815.94;;;11.03;43.07
21182;BME280;10749;46.296;7.524;2023-03-22T03:48:03;94815.03;;;11.11;43.37
21182;BME280;10749;46.296;7.524;2023-03-22T03:50:28;94815.69;;;11.13;43.08
21182;BME280;10749;46.296;7.524;2023-03-22T03:52:54;94815.69;;;11.13;43.57
21182;BME280;10749;46.296;7.524;2023-03-22T03:55:21;94818.13;;;11.15;43.30
21182;BME280;10749;46.296;7.524;2023-03-22T03:57:47;94825.09;;;11.16;43.46
21182;BME280;10749;46.296;7.524;2023-03-22T04:00:12;94836.06;;;11.13;43.60
21182;BME280;10749;46.296;7.524;2023-03-22T04:02:41;94825.34;;;11.06;43.54
21182;BME280;10749;46.296;7.524;2023-03-22T04:05:07;94831.13;;;11.09;43.44
21182;BME280;10749;46.296;7.524;2023-03-22T04:07:33;94830.66;;;11.06;43.39
21182;BME280;10749;46.296;7.524;2023-03-22T04:09:58;94821.78;;;10.99;43.55
21182;BME280;10749;46.296;7.524;2023-03-22T04:12:24;94821.44;;;10.87;43.57
21182;BME280;10749;46.296;7.524;2023-03-22T04:14:49;94824.69;;;10.89;43.59
21182;BME280;10749;46.296;7.524;2023-03-22T04:17:15;94814.19;;;10.81;43.41
21182;BME280;10749;46.296;7.524;2023-03-22T04:19:40;94822.97;;;10.67;43.94
21182;BME280;10749;46.296;7.524;2023-03-22T04:22:06;94816.69;;;10.68;43.66
21182;BME280;10749;46.296;7.524;2023-03-22T04:24:42;94827.53;;;10.73;43.77
21182;BME280;10749;46.296;7.524;2023-03-22T04:27:07;94824.53;;;10.76;43.83
21182;BME280;10749;46.296;7.524;2023-03-22T04:29:33;94822.16;;;10.81;44.06
21182;BME280;10749;46.296;7.524;2023-03-22T04:32:01;94823.72;;;10.76;44.00
21182;BME280;10749;46.296;7.524;2023-03-22T04:34:26;94828.88;;;10.69;43.96
21182;BME280;10749;46.296;7.524;2023-03-22T04:36:51;94825.41;;;10.54;43.93
21182;BME280;10749;46.296;7.524;2023-03-22T04:39:17;94820.09;;;10.54;44.09
21182;BME280;10749;46.296;7.524;2023-03-22T04:41:42;94825.22;;;10.55;44.30
21182;BME280;10749;46.296;7.524;2023-03-22T04:44:08;94824.03;;;10.58;43.99
21182;BME280;10749;46.296;7.524;2023-03-22T04:46:35;94831.16;;;10.57;43.99
21182;BME280;10749;46.296;7.524;2023-03-22T04:49:00;94815.88;;;10.45;44.26
21182;BME280;10749;46.296;7.524;2023-03-22T04:51:26;94828.81;;;10.40;44.47
21182;BME280;10749;46.296;7.524;2023-03-22T04:53:52;94833.78;;;10.43;44.26
21182;BME280;10749;46.296;7.524;2023-03-22T04:56:18;94829.19;;;10.37;44.16
21182;BME280;10749;46.296;7.524;2023-03-22T04:58:45;94827.44;;;10.29;44.31
21182;BME280;10749;46.296;7.524;2023-03-22T05:01:12;94828.91;;;10.32;44.37
21182;BME280;10749;46.296;7.524;2023-03-22T05:03:38;94826.09;;;10.33;44.76
21182;BME280;10749;46.296;7.524;2023-03-22T05:06:06;94828.28;;;10.30;44.38
21182;BME280;10749;46.296;7.524;2023-03-22T05:08:32;94826.63;;;10.29;44.49
21182;BME280;10749;46.296;7.524;2023-03-22T05:11:04;94828.63;;;10.27;44.66
21182;BME280;10749;46.296;7.524;2023-03-22T05:13:30;94832.91;;;10.28;44.55
21182;BME280;10749;46.296;7.524;2023-03-22T05:15:55;94828.63;;;10.27;44.83
21182;BME280;10749;46.296;7.524;2023-03-22T05:18:22;94835.91;;;10.25;44.56
21182;BME280;10749;46.296;7.524;2023-03-22T05:20:53;94834.00;;;10.10;44.81
21182;BME280;10749;46.296;7.524;2023-03-22T05:23:18;94843.56;;;10.11;44.83
21182;BME280;10749;46.296;7.524;2023-03-22T05:25:49;94842.59;;;10.12;44.82
21182;BME280;10749;46.296;7.524;2023-03-22T05:28:16;94846.22;;;10.11;44.97
21182;BME280;10749;46.296;7.524;2023-03-22T05:30:44;94841.28;;;10.08;44.89
21182;BME280;10749;46.296;7.524;2023-03-22T05:33:10;94841.91;;;10.10;45.04
21182;BME280;10749;46.296;7.524;2023-03-22T05:35:37;94835.66;;;10.11;44.86
21182;BME280;10749;46.296;7.524;2023-03-22T05:38:04;94842.25;;;10.15;45.24
21182;BME280;10749;46.296;7.524;2023-03-22T05:40:30;94842.72;;;10.19;45.22
21182;BME280;10749;46.296;7.524;2023-03-22T05:42:55;94836.63;;;10.18;45.03
21182;BME280;10749;46.296;7.524;2023-03-22T05:45:21;94840.56;;;10.23;45.15
21182;BME280;10749;46.296;7.524;2023-03-22T05:47:47;94845.41;;;10.11;44.86
21182;BME280;10749;46.296;7.524;2023-03-22T05:50:16;94846.88;;;10.13;45.03
21182;BME280;10749;46.296;7.524;2023-03-22T05:52:42;94847.03;;;10.20;45.16
21182;BME280;10749;46.296;7.524;2023-03-22T05:55:09;94842.38;;;10.22;45.22
21182;BME280;10749;46.296;7.524;2023-03-22T05:57:34;94851.84;;;10.16;45.28
21182;BME280;10749;46.296;7.524;2023-03-22T06:00:00;94849.19;;;10.16;44.98
21182;BME280;10749;46.296;7.524;2023-03-22T06:02:26;94851.31;;;10.21;45.29
21182;BME280;10749;46.296;7.524;2023-03-22T06:04:51;94848.84;;;10.19;45.33
21182;BME280;10749;46.296;7.524;2023-03-22T06:07:17;94855.88;;;10.27;44.96
21182;BME280;10749;46.296;7.524;2023-03-22T06:09:42;94861.13;;;10.35;45.31
21182;BME280;10749;46.296;7.524;2023-03-22T06:12:08;94858.59;;;10.42;45.26
21182;BME280;10749;46.296;7.524;2023-03-22T06:14:33;94867.97;;;10.44;44.91
21182;BME280;10749;46.296;7.524;2023-03-22T06:16:59;94859.94;;;10.38;45.31
21182;BME280;10749;46.296;7.524;2023-03-22T06:19:24;94858.94;;;10.16;45.07
21182;BME280;10749;46.296;7.524;2023-03-22T06:21:51;94860.94;;;10.14;45.13
21182;BME280;10749;46.296;7.524;2023-03-22T06:24:17;94861.38;;;10.26;45.29
21182;BME280;10749;46.296;7.524;2023-03-22T06:26:42;94861.66;;;10.31;45.36
21182;BME280;10749;46.296;7.524;2023-03-22T06:29:08;94867.13;;;10.29;45.32
21182;BME280;10749;46.296;7.524;2023-03-22T06:31:33;94870.41;;;10.31;45.15
21182;BME280;10749;46.296;7.524;2023-03-22T06:33:58;94865.31;;;10.30;45.48
21182;BME280;10749;46.296;7.524;2023-03-22T06:36:24;94876.81;;;10.37;45.36
21182;BME280;10749;46.296;7.524;2023-03-22T06:38:49;94863.88;;;10.42;45.05
21182;BME280;10749;46.296;7.524;2023-03-22T06:41:15;94867.16;;;10.44;45.55
21182;BME280;10749;46.296;7.524;2023-03-22T06:43:40;94877.50;;;10.53;45.53
21182;BME280;10749;46.296;7.524;2023-03-22T06:46:05;94868.31;;;10.64;45.61
21182;BME280;10749;46.296;7.524;2023-03-22T06:48:31;94871.44;;;10.82;45.71
21182;BME280;10749;46.296;7.524;2023-03-22T06:50:56;94869.84;;;10.96;45.47
21182;BME280;10749;46.296;7.524;2023-03-22T06:53:21;94874.78;;;11.14;45.63
21182;BME280;10749;46.296;7.524;2023-03-22T06:55:47;94878.25;;;11.29;45.70
21182;BME280;10749;46.296;7.524;2023-03-22T06:58:12;94877.97;;;11.38;45.50
21182;BME280;10749;46.296;7.524;2023-03-22T07:00:38;94873.03;;;11.50;45.08
21182;BME280;10749;46.296;7.524;2023-03-22T07:03:03;94883.25;;;11.53;45.03
21182;BME280;10749;46.296;7.524;2023-03-22T07:05:29;94879.88;;;11.59;44.95
21182;BME280;10749;46.296;7.524;2023-03-22T07:07:54;94876.75;;;11.70;45.14
21182;BME280;10749;46.296;7.524;2023-03-22T07:10:20;94885.91;;;11.82;44.97
21182;BME280;10749;46.296;7.524;2023-03-22T07:12:45;94882.13;;;11.91;44.84
21182;BME280;10749;46.296;7.524;2023-03-22T07:15:10;94878.38;;;12.00;44.69
21182;BME280;10749;46.296;7.524;2023-03-22T07:17:36;94870.28;;;12.09;44.67
21182;BME280;10749;46.296;7.524;2023-03-22T07:20:01;94876.97;;;12.26;44.68
21182;BME280;10749;46.296;7.524;2023-03-22T07:22:27;94874.84;;;12.36;44.57
21182;BME280;10749;46.296;7.524;2023-03-22T07:24:53;94872.44;;;12.41;44.55
21182;BME280;10749;46.296;7.524;2023-03-22T07:27:18;94881.28;;;12.48;44.33
21182;BME280;10749;46.296;7.524;2023-03-22T07:29:43;94876.84;;;12.55;44.47
21182;BME280;10749;46.296;7.524;2023-03-22T07:32:09;94882.69;;;12.65;44.26
21182;BME280;10749;46.296;7.524;2023-03-22T07:34:35;94872.56;;;12.75;43.84
21182;BME280;10749;46.296;7.524;2023-03-22T07:37:01;94876.34;;;12.87;44.18
21182;BME280;10749;46.296;7.524;2023-03-22T07:39:28;94873.91;;;12.92;44.05
21182;BME280;10749;46.296;7.524;2023-03-22T07:41:55;94879.28;;;12.99;44.32
21182;BME280;10749;46.296;7.524;2023-03-22T07:44:22;94880.09;;;13.00;44.18
21182;BME280;10749;46.296;7.524;2023-03-22T07:46:47;94885.84;;;13.03;44.07
21182;BME280;10749;46.296;7.524;2023-03-22T07:49:15;94886.16;;;13.15;43.99
21182;BME280;10749;46.296;7.524;2023-03-22T07:51:40;94878.03;;;13.23;43.86
21182;BME280;10749;46.296;7.524;2023-03-22T07:54:05;94875.22;;;13.31;44.03
21182;BME280;10749;46.296;7.524;2023-03-22T07:56:31;94887.34;;;13.40;43.80
21182;BME280;10749;46.296;7.524;2023-03-22T07:58:56;94885.75;;;13.46;44.04
21182;BME280;10749;46.296;7.524;2023-03-22T08:01:21;94882.88;;;13.47;43.82
21182;BME280;10749;46.296;7.524;2023-03-22T08:03:48;94879.63;;;13.52;43.98
21182;BME280;10749;46.296;7.524;2023-03-22T08:06:14;94873.91;;;13.55;43.68
21182;BME280;10749;46.296;7.524;2023-03-22T08:08:40;94879.28;;;13.61;43.59
21182;BME280;10749;46.296;7.524;2023-03-22T08:11:06;94873.97;;;13.68;43.89
21182;BME280;10749;46.296;7.524;2023-03-22T08:13:32;94873.22;;;13.74;43.63
21182;BME280;10749;46.296;7.524;2023-03-22T08:15:57;94871.56;;;13.79;43.68
21182;BME280;10749;46.296;7.524;2023-03-22T08:18:23;94872.78;;;13.70;43.88
21182;BME280;10749;46.296;7.524;2023-03-22T08:20:53;94878.13;;;13.83;43.55
21182;BME280;10749;46.296;7.524;2023-03-22T08:23:18;94868.38;;;13.97;43.59
21182;BME280;10749;46.296;7.524;2023-03-22T08:25:44;94866.75;;;14.03;43.63
21182;BME280;10749;46.296;7.524;2023-03-22T08:28:09;94862.69;;;14.07;43.75
21182;BME280;10749;46.296;7.524;2023-03-22T08:30:35;94857.19;;;14.15;43.33
21182;BME280;10749;46.296;7.524;2023-03-22T08:33:01;94857.00;;;14.23;43.43
21182;BME280;10749;46.296;7.524;2023-03-22T08:35:26;94853.72;;;14.27;43.41
21182;BME280;10749;46.296;7.524;2023-03-22T08:37:53;94852.56;;;14.37;43.28
21182;BME280;10749;46.296;7.524;2023-03-22T08:40:19;94853.38;;;14.44;43.44
21182;BME280;10749;46.296;7.524;2023-03-22T08:42:44;94843.34;;;14.52;43.45
21182;BME280;10749;46.296;7.524;2023-03-22T08:45:09;94846.81;;;14.59;43.08
21182;BME280;10749;46.296;7.524;2023-03-22T08:47:35;94837.00;;;14.66;43.17
21182;BME280;10749;46.296;7.524;2023-03-22T08:50:00;94849.72;;;14.77;43.27
21182;BME280;10749;46.296;7.524;2023-03-22T08:52:25;94840.69;;;14.85;42.98
21182;BME280;10749;46.296;7.524;2023-03-22T08:54:50;94825.75;;;14.91;42.83
21182;BME280;10749;46.296;7.524;2023-03-22T08:57:17;94825.91;;;14.96;42.80
21182;BME280;10749;46.296;7.524;2023-03-22T08:59:43;94819.34;;;15.05;42.78
21182;BME280;10749;46.296;7.524;2023-03-22T09:02:08;94815.66;;;15.06;43.02
21182;BME280;10749;46.296;7.524;2023-03-22T09:04:33;94824.25;;;15.21;42.90
21182;BME280;10749;46.296;7.524;2023-03-22T09:06:59;94814.38;;;15.28;43.09
21182;BME280;10749;46.296;7.524;2023-03-22T09:09:24;94809.84;;;15.29;42.85
21182;BME280;10749;46.296;7.524;2023-03-22T09:11:49;94805.34;;;15.29;42.82
21182;BME280;10749;46.296;7.524;2023-03-22T09:14:15;94805.53;;;15.34;42.56
21182;BME280;10749;46.296;7.524;2023-03-22T09:16:40;94802.66;;;15.42;42.65
21182;BME280;10749;46.296;7.524;2023-03-22T09:19:05;94797.28;;;15.49;42.56
21182;BME280;10749;46.296;7.524;2023-03-22T09:21:31;94799.59;;;15.52;42.48
21182;BME280;10749;46.296;7.524;2023-03-22T09:23:56;94795.47;;;15.56;42.77
21182;BME280;10749;46.296;7.524;2023-03-22T09:26:22;94783.97;;;15.55;42.46
21182;BME280;10749;46.296;7.524;2023-03-22T09:28:48;94790.53;;;15.59;42.63
21182;BME280;10749;46.296;7.524;2023-03-22T09:31:14;94786.00;;;15.60;42.28
21182;BME280;10749;46.296;7.524;2023-03-22T09:33:40;94785.38;;;15.64;42.51
21182;BME280;10749;46.296;7.524;2023-03-22T09:36:07;94785.53;;;15.76;42.41
21182;BME280;10749;46.296;7.524;2023-03-22T09:38:33;94776.00;;;15.87;42.23
21182;BME280;10749;46.296;7.524;2023-03-22T09:41:03;94779.22;;;16.02;42.38
21182;BME280;10749;46.296;7.524;2023-03-22T09:43:36;94775.25;;;16.11;42.45
21182;BME280;10749;46.296;7.524;2023-03-22T09:46:04;94778.28;;;16.21;42.42
21182;BME280;10749;46.296;7.524;2023-03-22T09:48:32;94763.91;;;16.22;42.03
21182;BME280;10749;46.296;7.524;2023-03-22T09:51:01;94766.94;;;16.26;42.05
21182;BME280;10749;46.296;7.524;2023-03-22T09:53:28;94760.91;;;16.37;42.26
21182;BME280;10749;46.296;7.524;2023-03-22T09:56:22;94754.53;;;16.38;42.12
21182;BME280;10749;46.296;7.524;2023-03-22T10:04:22;94741.09;;;16.76;41.68
21182;BME280;10749;46.296;7.524;2023-03-22T10:07:03;94744.84;;;16.93;41.67
21182;BME280;10749;46.296;7.524;2023-03-22T10:09:37;94733.63;;;17.02;41.83
21182;BME280;10749;46.296;7.524;2023-03-22T10:14:40;94737.72;;;17.23;41.77
21182;BME280;10749;46.296;7.524;2023-03-22T10:17:12;94738.75;;;17.40;41.69
21182;BME280;10749;46.296;7.524;2023-03-22T10:19:52;94730.13;;;17.57;41.70
21182;BME280;10749;46.296;7.524;2023-03-22T10:22:21;94722.88;;;17.64;41.40
21182;BME280;10749;46.296;7.524;2023-03-22T10:24:50;94721.28;;;17.74;41.33
21182;BME280;10749;46.296;7.524;2023-03-22T10:27:18;94720.75;;;17.84;41.13
21182;BME280;10749;46.296;7.524;2023-03-22T10:30:00;94724.91;;;17.80;40.68
21182;BME280;10749;46.296;7.524;2023-03-22T10:32:47;94715.28;;;17.61;39.58
21182;BME280;10749;46.296;7.524;2023-03-22T10:35:16;94707.84;;;17.63;39.71
21182;BME280;10749;46.296;7.524;2023-03-22T10:37:44;94710.09;;;17.47;39.08
21182;BME280;10749;46.296;7.524;2023-03-22T10:40:17;94697.63;;;17.60;39.40
21182;BME280;10749;46.296;7.524;2023-03-22T10:42:50;94703.38;;;18.16;40.26
21182;BME280;10749;46.296;7.524;2023-03-22T10:45:18;94699.97;;;18.51;40.37
21182;BME280;10749;46.296;7.524;2023-03-22T10:48:00;94696.94;;;18.94;40.57
21182;BME280;10749;46.296;7.524;2023-03-22T10:50:42;94693.84;;;19.36;40.85
21182;BME280;10749;46.296;7.524;2023-03-22T10:55:44;94674.91;;;20.11;41.19
21182;BME280;10749;46.296;7.524;2023-03-22T10:58:14;94677.38;;;20.30;40.90
21182;BME280;10749;46.296;7.524;2023-03-22T11:01:04;94672.69;;;20.37;40.70
21182;BME280;10749;46.296;7.524;2023-03-22T11:03:40;94675.44;;;20.42;40.77
21182;BME280;10749;46.296;7.524;2023-03-22T11:06:11;94670.22;;;20.35;40.62
21182;BME280;10749;46.296;7.524;2023-03-22T11:08:45;94663.06;;;19.79;39.21
21182;BME280;10749;46.296;7.524;2023-03-22T11:11:21;94663.50;;;19.76;39.29
21182;BME280;10749;46.296;7.524;2023-03-22T11:14:13;94659.50;;;20.07;39.93
21182;BME280;10749;46.296;7.524;2023-03-22T11:16:46;94654.59;;;20.32;39.71
21182;BME280;10749;46.296;7.524;2023-03-22T11:19:41;94654.09;;;20.52;40.21
21182;BME280;10749;46.296;7.524;2023-03-22T11:22:14;94645.44;;;20.66;40.05
21182;BME280;10749;46.296;7.524;2023-03-22T11:24:40;94640.53;;;20.80;40.19
21182;BME280;10749;46.296;7.524;2023-03-22T11:27:29;94634.31;;;20.96;40.07
21182;BME280;10749;46.296;7.524;2023-03-22T11:30:22;94637.06;;;21.18;40.03
21182;BME280;10749;46.296;7.524;2023-03-22T11:32:48;94632.13;;;21.32;39.98
21182;BME280;10749;46.296;7.524;2023-03-22T11:35:21;94630.91;;;21.44;39.98
21182;BME280;10749;46.296;7.524;2023-03-22T11:37:49;94628.16;;;21.39;39.61
21182;BME280;10749;46.296;7.524;2023-03-22T11:42:46;94621.06;;;21.55;39.57
21182;BME280;10749;46.296;7.524;2023-03-22T11:45:15;94617.53;;;21.76;39.46
21182;BME280;10749;46.296;7.524;2023-03-22T11:47:42;94617.53;;;21.76;39.03
21182;BME280;10749;46.296;7.524;2023-03-22T11:50:18;94610.00;;;21.78;39.05
21182;BME280;10749;46.296;7.524;2023-03-22T11:52:46;94615.41;;;22.05;39.37
21182;BME280;10749;46.296;7.524;2023-03-22T11:55:14;94609.38;;;22.25;39.09
21182;BME280;10749;46.296;7.524;2023-03-22T11:57:41;94608.25;;;22.21;38.82
21182;BME280;10749;46.296;7.524;2023-03-22T12:00:20;94597.19;;;22.54;38.88
21182;BME280;10749;46.296;7.524;2023-03-22T12:02:52;94583.38;;;22.77;39.18
21182;BME280;10749;46.296;7.524;2023-03-22T12:05:21;94582.81;;;22.75;38.66
21182;BME280;10749;46.296;7.524;2023-03-22T12:08:05;94582.88;;;22.85;38.61
21182;BME280;10749;46.296;7.524;2023-03-22T12:10:45;94577.03;;;23.09;38.79
21182;BME280;10749;46.296;7.524;2023-03-22T12:13:22;94569.81;;;23.24;38.55
21182;BME280;10749;46.296;7.524;2023-03-22T12:15:54;94573.34;;;23.30;38.30
21182;BME280;10749;46.296;7.524;2023-03-22T12:18:36;94568.03;;;23.50;38.48
21182;BME280;10749;46.296;7.524;2023-03-22T12:21:03;94552.97;;;23.64;38.51
21182;BME280;10749;46.296;7.524;2023-03-22T12:23:32;94559.44;;;23.78;38.41
21182;BME280;10749;46.296;7.524;2023-03-22T12:28:39;94550.81;;;23.76;37.53
21182;BME280;10749;46.296;7.524;2023-03-22T12:31:30;94549.19;;;23.75;37.23
21182;BME280;10749;46.296;7.524;2023-03-22T12:33:56;94545.41;;;23.71;37.21
21182;BME280;10749;46.296;7.524;2023-03-22T12:36:28;94529.72;;;23.73;37.11
21182;BME280;10749;46.296;7.524;2023-03-22T12:38:59;94535.97;;;23.84;37.07
21182;BME280;10749;46.296;7.524;2023-03-22T12:41:38;94532.97;;;23.85;36.24
21182;BME280;10749;46.296;7.524;2023-03-22T12:44:16;94522.72;;;24.13;36.79
21182;BME280;10749;46.296;7.524;2023-03-22T12:46:48;94523.00;;;24.31;36.51
21182;BME280;10749;46.296;7.524;2023-03-22T12:52:09;94506.47;;;24.53;36.22
21182;BME280;10749;46.296;7.524;2023-03-22T12:54:36;94506.44;;;24.63;36.25
21182;BME280;10749;46.296;7.524;2023-03-22T12:57:02;94496.91;;;24.81;36.20
21182;BME280;10749;46.296;7.524;2023-03-22T12:59:29;94502.56;;;24.95;36.21
21182;BME280;10749;46.296;7.524;2023-03-22T13:01:59;94491.97;;;25.03;35.98
21182;BME280;10749;46.296;7.524;2023-03-22T13:04:48;94493.25;;;25.21;35.99
21182;BME280;10749;46.296;7.524;2023-03-22T13:07:15;94483.09;;;25.47;35.95
21182;BME280;10749;46.296;7.524;2023-03-22T13:09:55;94483.72;;;25.78;35.85
21182;BME280;10749;46.296;7.524;2023-03-22T13:30:52;94457.41;;;26.12;34.17
21182;BME280;10749;46.296;7.524;2023-03-22T13:33:29;94454.16;;;26.10;33.66
21182;BME280;10749;46.296;7.524;2023-03-22T13:36:04;94450.25;;;26.26;33.68
21182;BME280;10749;46.296;7.524;2023-03-22T13:38:37;94447.03;;;26.48;33.67
21182;BME280;10749;46.296;7.524;2023-03-22T13:41:27;94443.00;;;26.16;32.26
21182;BME280;10749;46.296;7.524;2023-03-22T13:43:55;94440.75;;;26.29;32.35
21182;BME280;10749;46.296;7.524;2023-03-22T13:59:09;94417.25;;;27.09;32.46
21182;BME280;10749;46.296;7.524;2023-03-22T14:01:40;94419.84;;;27.19;32.19
21182;BME280;10749;46.296;7.524;2023-03-22T14:04:11;94412.88;;;27.13;31.57
21182;BME280;10749;46.296;7.524;2023-03-22T14:06:58;94407.44;;;27.13;31.75
21182;BME280;10749;46.296;7.524;2023-03-22T14:09:33;94405.09;;;27.25;31.93
21182;BME280;10749;46.296;7.524;2023-03-22T14:12:21;94412.50;;;27.38;31.69
21182;BME280;10749;46.296;7.524;2023-03-22T14:14:52;94411.78;;;27.33;31.66
21182;BME280;10749;46.296;7.524;2023-03-22T14:17:31;94409.22;;;27.41;31.58
21182;BME280;10749;46.296;7.524;2023-03-22T14:19:59;94406.50;;;27.41;31.50
21182;BME280;10749;46.296;7.524;2023-03-22T14:22:42;94406.66;;;27.50;31.52
21182;BME280;10749;46.296;7.524;2023-03-22T14:25:16;94399.31;;;27.50;31.40
21182;BME280;10749;46.296;7.524;2023-03-22T14:27:42;94396.72;;;27.40;30.68
21182;BME280;10749;46.296;7.524;2023-03-22T14:30:39;94387.47;;;27.04;28.21
21182;BME280;10749;46.296;7.524;2023-03-22T14:33:11;94384.63;;;26.95;28.87
21182;BME280;10749;46.296;7.524;2023-03-22T14:35:40;94393.88;;;27.32;29.43
21182;BME280;10749;46.296;7.524;2023-03-22T14:38:11;94392.78;;;27.51;29.70